sensor_id;sensor_type;location;lat;lon;timestamp;P1;durP1;ratioP1;P2;durP2;ratioP2
55312;SDS011;46892;45.668;11.756;2022-11-15T00:00:48;18.57;;;15.47;;
55312;SDS011;46892;45.668;11.756;2022-11-15T00:03:15;16.27;;;12.90;;
55312;SDS011;46892;45.668;11.756;2022-11-15T00:05:48;14.33;;;11.77;;
55312;SDS011;46892;45.668;11.756;2022-11-15T00:08:14;16.60;;;13.57;;
55312;SDS011;46892;45.668;11.756;2022-11-15T00:10:40;17.07;;;13.33;;
55312;SDS011;46892;45.668;11.756;2022-11-15T00:13:06;17.67;;;13.13;;
55312;SDS011;46892;45.668;11.756;2022-11-15T00:15:37;13.07;;;10.33;;
55312;SDS011;46892;45.668;11.756;2022-11-15T00:18:04;18.25;;;13.93;;
55312;SDS011;46892;45.668;11.756;2022-11-15T00:20:33;18.57;;;13.53;;
55312;SDS011;46892;45.668;11.756;2022-11-15T00:22:59;14.33;;;11.40;;
55312;SDS011;46892;45.668;11.756;2022-11-15T00:25:24;15.47;;;10.60;;
55312;SDS011;46892;45.668;11.756;2022-11-15T00:27:50;11.87;;;9.93;;
55312;SDS011;46892;45.668;11.756;2022-11-15T00:30:20;13.65;;;11.25;;
55312;SDS011;46892;45.668;11.756;2022-11-15T00:32:46;16.63;;;12.30;;
55312;SDS011;46892;45.668;11.756;2022-11-15T00:35:11;16.53;;;12.03;;
55312;SDS011;46892;45.668;11.756;2022-11-15T00:37:37;14.43;;;11.37;;
55312;SDS011;46892;45.668;11.756;2022-11-15T00:40:03;16.60;;;12.07;;
55312;SDS011;46892;45.668;11.756;2022-11-15T00:42:29;17.60;;;13.60;;
55312;SDS011;46892;45.668;11.756;2022-11-15T00:44:54;17.70;;;14.13;;
55312;SDS011;46892;45.668;11.756;2022-11-15T00:47:20;17.07;;;13.53;;
55312;SDS011;46892;45.668;11.756;2022-11-15T00:49:45;17.13;;;12.60;;
55312;SDS011;46892;45.668;11.756;2022-11-15T00:52:11;16.13;;;12.60;;
55312;SDS011;46892;45.668;11.756;2022-11-15T00:54:37;16.33;;;13.17;;
55312;SDS011;46892;45.668;11.756;2022-11-15T00:57:02;17.80;;;12.97;;
55312;SDS011;46892;45.668;11.756;2022-11-15T00:59:28;12.93;;;10.83;;
55312;SDS011;46892;45.668;11.756;2022-11-15T01:01:54;17.70;;;11.30;;
55312;SDS011;46892;45.668;11.756;2022-11-15T01:04:20;16.00;;;12.83;;
55312;SDS011;46892;45.668;11.756;2022-11-15T01:06:45;16.13;;;13.47;;
55312;SDS011;46892;45.668;11.756;2022-11-15T01:09:11;18.87;;;14.07;;
55312;SDS011;46892;45.668;11.756;2022-11-15T01:11:38;15.60;;;12.77;;
55312;SDS011;46892;45.668;11.756;2022-11-15T01:14:04;15.83;;;12.40;;
55312;SDS011;46892;45.668;11.756;2022-11-15T01:16:29;14.40;;;11.10;;
55312;SDS011;46892;45.668;11.756;2022-11-15T01:18:56;16.60;;;11.10;;
55312;SDS011;46892;45.668;11.756;2022-11-15T01:21:21;22.03;;;14.63;;
55312;SDS011;46892;45.668;11.756;2022-11-15T01:23:47;18.70;;;13.93;;
55312;SDS011;46892;45.668;11.756;2022-11-15T01:26:14;16.80;;;13.00;;
55312;SDS011;46892;45.668;11.756;2022-11-15T01:28:40;15.30;;;11.53;;
55312;SDS011;46892;45.668;11.756;2022-11-15T01:31:10;13.07;;;11.20;;
55312;SDS011;46892;45.668;11.756;2022-11-15T01:33:38;19.47;;;11.60;;
55312;SDS011;46892;45.668;11.756;2022-11-15T01:36:07;16.50;;;12.87;;
55312;SDS011;46892;45.668;11.756;2022-11-15T01:38:36;17.60;;;12.80;;
55312;SDS011;46892;45.668;11.756;2022-11-15T01:41:02;15.90;;;11.83;;
55312;SDS011;46892;45.668;11.756;2022-11-15T01:43:32;20.33;;;15.30;;
55312;SDS011;46892;45.668;11.756;2022-11-15T01:46:06;20.13;;;14.73;;
55312;SDS011;46892;45.668;11.756;2022-11-15T01:48:53;24.67;;;17.10;;
55312;SDS011;46892;45.668;11.756;2022-11-15T01:51:22;19.40;;;15.13;;
55312;SDS011;46892;45.668;11.756;2022-11-15T01:53:54;22.63;;;17.17;;
55312;SDS011;46892;45.668;11.756;2022-11-15T01:56:24;20.83;;;16.13;;
55312;SDS011;46892;45.668;11.756;2022-11-15T01:58:55;20.03;;;15.90;;
55312;SDS011;46892;45.668;11.756;2022-11-15T02:01:24;19.87;;;15.03;;
55312;SDS011;46892;45.668;11.756;2022-11-15T02:06:21;18.53;;;14.20;;
55312;SDS011;46892;45.668;11.756;2022-11-15T02:08:47;18.50;;;14.43;;
55312;SDS011;46892;45.668;11.756;2022-11-15T02:11:14;16.63;;;13.20;;
55312;SDS011;46892;45.668;11.756;2022-11-15T02:13:39;15.43;;;11.97;;
55312;SDS011;46892;45.668;11.756;2022-11-15T02:19:17;18.97;;;14.03;;
55312;SDS011;46892;45.668;11.756;2022-11-15T02:22:46;20.30;;;15.27;;
55312;SDS011;46892;45.668;11.756;2022-11-15T02:30:43;17.23;;;14.13;;
55312;SDS011;46892;45.668;11.756;2022-11-15T02:35:57;18.00;;;14.20;;
55312;SDS011;46892;45.668;11.756;2022-11-15T02:38:37;19.90;;;14.60;;
55312;SDS011;46892;45.668;11.756;2022-11-15T02:41:24;18.03;;;13.47;;
55312;SDS011;46892;45.668;11.756;2022-11-15T02:46:44;17.00;;;14.23;;
55312;SDS011;46892;45.668;11.756;2022-11-15T02:49:33;20.47;;;14.33;;
55312;SDS011;46892;45.668;11.756;2022-11-15T02:52:00;17.53;;;13.93;;
55312;SDS011;46892;45.668;11.756;2022-11-15T02:54:28;14.33;;;12.20;;
55312;SDS011;46892;45.668;11.756;2022-11-15T02:56:56;13.40;;;11.30;;
55312;SDS011;46892;45.668;11.756;2022-11-15T03:10:17;14.63;;;12.43;;
55312;SDS011;46892;45.668;11.756;2022-11-15T03:12:57;17.67;;;12.70;;
55312;SDS011;46892;45.668;11.756;2022-11-15T03:15:35;19.03;;;12.10;;
55312;SDS011;46892;45.668;11.756;2022-11-15T03:18:06;14.67;;;11.77;;
55312;SDS011;46892;45.668;11.756;2022-11-15T03:20:40;15.97;;;12.00;;
55312;SDS011;46892;45.668;11.756;2022-11-15T03:23:08;12.90;;;11.50;;
55312;SDS011;46892;45.668;11.756;2022-11-15T03:25:38;13.40;;;10.30;;
55312;SDS011;46892;45.668;11.756;2022-11-15T03:28:10;16.13;;;12.50;;
55312;SDS011;46892;45.668;11.756;2022-11-15T03:30:41;16.77;;;12.83;;
55312;SDS011;46892;45.668;11.756;2022-11-15T03:33:08;17.30;;;14.13;;
55312;SDS011;46892;45.668;11.756;2022-11-15T03:35:37;16.37;;;13.00;;
55312;SDS011;46892;45.668;11.756;2022-11-15T03:38:09;15.68;;;12.80;;
55312;SDS011;46892;45.668;11.756;2022-11-15T03:41:00;13.57;;;12.07;;
55312;SDS011;46892;45.668;11.756;2022-11-15T03:43:33;14.03;;;11.57;;
55312;SDS011;46892;45.668;11.756;2022-11-15T03:46:02;14.80;;;12.57;;
55312;SDS011;46892;45.668;11.756;2022-11-15T03:48:40;17.93;;;13.60;;
55312;SDS011;46892;45.668;11.756;2022-11-15T03:51:28;17.38;;;12.70;;
55312;SDS011;46892;45.668;11.756;2022-11-15T03:53:54;17.20;;;13.10;;
55312;SDS011;46892;45.668;11.756;2022-11-15T03:56:20;15.90;;;13.00;;
55312;SDS011;46892;45.668;11.756;2022-11-15T03:58:46;16.93;;;13.63;;
55312;SDS011;46892;45.668;11.756;2022-11-15T04:01:12;16.47;;;13.10;;
55312;SDS011;46892;45.668;11.756;2022-11-15T04:03:37;19.13;;;15.13;;
55312;SDS011;46892;45.668;11.756;2022-11-15T04:06:03;24.97;;;18.07;;
55312;SDS011;46892;45.668;11.756;2022-11-15T04:08:29;21.87;;;18.07;;
55312;SDS011;46892;45.668;11.756;2022-11-15T04:10:54;24.93;;;18.43;;
55312;SDS011;46892;45.668;11.756;2022-11-15T04:13:20;24.77;;;19.27;;
55312;SDS011;46892;45.668;11.756;2022-11-15T04:15:45;26.30;;;19.40;;
55312;SDS011;46892;45.668;11.756;2022-11-15T04:18:11;32.70;;;21.00;;
55312;SDS011;46892;45.668;11.756;2022-11-15T04:20:37;27.53;;;20.10;;
55312;SDS011;46892;45.668;11.756;2022-11-15T04:23:22;26.10;;;20.90;;
55312;SDS011;46892;45.668;11.756;2022-11-15T04:26:16;29.17;;;21.50;;
55312;SDS011;46892;45.668;11.756;2022-11-15T04:28:45;32.47;;;23.20;;
55312;SDS011;46892;45.668;11.756;2022-11-15T04:31:29;31.83;;;23.37;;
55312;SDS011;46892;45.668;11.756;2022-11-15T04:33:55;27.40;;;21.97;;
55312;SDS011;46892;45.668;11.756;2022-11-15T04:36:20;27.67;;;22.57;;
55312;SDS011;46892;45.668;11.756;2022-11-15T04:39:04;29.47;;;23.10;;
55312;SDS011;46892;45.668;11.756;2022-11-15T04:41:30;34.43;;;22.13;;
55312;SDS011;46892;45.668;11.756;2022-11-15T04:43:56;28.97;;;22.33;;
55312;SDS011;46892;45.668;11.756;2022-11-15T04:46:22;29.07;;;23.57;;
55312;SDS011;46892;45.668;11.756;2022-11-15T04:48:48;24.90;;;20.40;;
55312;SDS011;46892;45.668;11.756;2022-11-15T04:51:15;24.67;;;20.37;;
55312;SDS011;46892;45.668;11.756;2022-11-15T04:53:41;34.27;;;19.90;;
55312;SDS011;46892;45.668;11.756;2022-11-15T04:56:06;22.03;;;17.83;;
55312;SDS011;46892;45.668;11.756;2022-11-15T04:58:32;22.27;;;17.90;;
55312;SDS011;46892;45.668;11.756;2022-11-15T05:01:05;37.53;;;19.57;;
55312;SDS011;46892;45.668;11.756;2022-11-15T05:03:35;20.37;;;16.30;;
55312;SDS011;46892;45.668;11.756;2022-11-15T05:06:19;20.37;;;16.77;;
55312;SDS011;46892;45.668;11.756;2022-11-15T05:08:45;20.40;;;16.20;;
55312;SDS011;46892;45.668;11.756;2022-11-15T05:11:11;24.37;;;16.07;;
55312;SDS011;46892;45.668;11.756;2022-11-15T05:13:36;38.63;;;17.03;;
55312;SDS011;46892;45.668;11.756;2022-11-15T05:16:02;18.20;;;14.83;;
55312;SDS011;46892;45.668;11.756;2022-11-15T05:18:28;19.47;;;15.60;;
55312;SDS011;46892;45.668;11.756;2022-11-15T05:20:53;24.90;;;17.13;;
55312;SDS011;46892;45.668;11.756;2022-11-15T05:23:19;17.70;;;14.80;;
55312;SDS011;46892;45.668;11.756;2022-11-15T05:25:45;19.30;;;15.17;;
55312;SDS011;46892;45.668;11.756;2022-11-15T05:28:10;16.60;;;13.80;;
55312;SDS011;46892;45.668;11.756;2022-11-15T05:30:36;18.07;;;14.03;;
55312;SDS011;46892;45.668;11.756;2022-11-15T05:33:01;17.90;;;14.23;;
55312;SDS011;46892;45.668;11.756;2022-11-15T05:35:35;16.47;;;14.67;;
55312;SDS011;46892;45.668;11.756;2022-11-15T05:38:07;16.63;;;12.97;;
55312;SDS011;46892;45.668;11.756;2022-11-15T05:40:33;18.13;;;13.60;;
55312;SDS011;46892;45.668;11.756;2022-11-15T05:43:00;43.87;;;16.70;;
55312;SDS011;46892;45.668;11.756;2022-11-15T05:45:29;17.73;;;13.57;;
55312;SDS011;46892;45.668;11.756;2022-11-15T05:47:56;44.37;;;24.07;;
55312;SDS011;46892;45.668;11.756;2022-11-15T05:50:25;30.87;;;17.40;;
55312;SDS011;46892;45.668;11.756;2022-11-15T05:52:51;79.73;;;44.17;;
55312;SDS011;46892;45.668;11.756;2022-11-15T05:55:17;37.93;;;15.30;;
55312;SDS011;46892;45.668;11.756;2022-11-15T05:57:43;31.63;;;23.60;;
55312;SDS011;46892;45.668;11.756;2022-11-15T06:00:09;20.77;;;15.83;;
55312;SDS011;46892;45.668;11.756;2022-11-15T06:02:36;21.70;;;15.63;;
55312;SDS011;46892;45.668;11.756;2022-11-15T06:05:01;23.20;;;17.47;;
55312;SDS011;46892;45.668;11.756;2022-11-15T06:07:28;20.90;;;16.73;;
55312;SDS011;46892;45.668;11.756;2022-11-15T06:09:54;19.03;;;16.00;;
55312;SDS011;46892;45.668;11.756;2022-11-15T06:12:20;20.03;;;15.97;;
55312;SDS011;46892;45.668;11.756;2022-11-15T06:14:45;16.63;;;13.83;;
55312;SDS011;46892;45.668;11.756;2022-11-15T06:17:11;16.13;;;13.87;;
55312;SDS011;46892;45.668;11.756;2022-11-15T06:19:37;15.73;;;12.63;;
55312;SDS011;46892;45.668;11.756;2022-11-15T06:22:02;16.03;;;13.90;;
55312;SDS011;46892;45.668;11.756;2022-11-15T06:24:28;17.13;;;13.40;;
55312;SDS011;46892;45.668;11.756;2022-11-15T06:26:54;15.87;;;11.83;;
55312;SDS011;46892;45.668;11.756;2022-11-15T06:29:19;13.00;;;10.77;;
55312;SDS011;46892;45.668;11.756;2022-11-15T06:31:45;14.27;;;12.33;;
55312;SDS011;46892;45.668;11.756;2022-11-15T06:34:11;14.73;;;12.47;;
55312;SDS011;46892;45.668;11.756;2022-11-15T06:36:36;15.27;;;12.97;;
55312;SDS011;46892;45.668;11.756;2022-11-15T06:39:03;15.00;;;12.20;;
55312;SDS011;46892;45.668;11.756;2022-11-15T06:41:29;16.80;;;12.50;;
55312;SDS011;46892;45.668;11.756;2022-11-15T06:43:55;15.27;;;12.87;;
55312;SDS011;46892;45.668;11.756;2022-11-15T06:46:21;16.37;;;13.17;;
55312;SDS011;46892;45.668;11.756;2022-11-15T06:48:47;17.27;;;12.70;;
55312;SDS011;46892;45.668;11.756;2022-11-15T06:51:15;16.50;;;12.73;;
55312;SDS011;46892;45.668;11.756;2022-11-15T06:53:40;18.27;;;13.40;;
55312;SDS011;46892;45.668;11.756;2022-11-15T06:56:06;16.50;;;13.13;;
55312;SDS011;46892;45.668;11.756;2022-11-15T06:58:34;14.73;;;12.30;;
55312;SDS011;46892;45.668;11.756;2022-11-15T07:01:01;16.67;;;13.33;;
55312;SDS011;46892;45.668;11.756;2022-11-15T07:03:29;15.23;;;12.47;;
55312;SDS011;46892;45.668;11.756;2022-11-15T07:05:55;26.20;;;14.30;;
55312;SDS011;46892;45.668;11.756;2022-11-15T07:08:22;16.93;;;13.17;;
55312;SDS011;46892;45.668;11.756;2022-11-15T07:10:49;14.77;;;12.03;;
55312;SDS011;46892;45.668;11.756;2022-11-15T07:13:15;13.50;;;11.87;;
55312;SDS011;46892;45.668;11.756;2022-11-15T07:15:40;17.73;;;11.90;;
55312;SDS011;46892;45.668;11.756;2022-11-15T07:18:06;13.60;;;10.83;;
55312;SDS011;46892;45.668;11.756;2022-11-15T07:20:32;13.53;;;11.17;;
55312;SDS011;46892;45.668;11.756;2022-11-15T07:23:01;15.17;;;12.17;;
55312;SDS011;46892;45.668;11.756;2022-11-15T07:25:28;15.63;;;12.48;;
55312;SDS011;46892;45.668;11.756;2022-11-15T07:27:54;21.87;;;12.57;;
55312;SDS011;46892;45.668;11.756;2022-11-15T07:30:21;15.23;;;12.37;;
55312;SDS011;46892;45.668;11.756;2022-11-15T07:32:46;14.63;;;12.13;;
55312;SDS011;46892;45.668;11.756;2022-11-15T07:35:12;13.07;;;10.70;;
55312;SDS011;46892;45.668;11.756;2022-11-15T07:37:38;13.97;;;11.33;;
55312;SDS011;46892;45.668;11.756;2022-11-15T07:40:03;14.87;;;11.20;;
55312;SDS011;46892;45.668;11.756;2022-11-15T07:42:32;16.37;;;10.50;;
55312;SDS011;46892;45.668;11.756;2022-11-15T07:45:16;12.10;;;10.07;;
55312;SDS011;46892;45.668;11.756;2022-11-15T07:47:45;13.40;;;10.80;;
55312;SDS011;46892;45.668;11.756;2022-11-15T07:50:11;12.97;;;9.97;;
55312;SDS011;46892;45.668;11.756;2022-11-15T07:52:37;13.87;;;10.53;;
55312;SDS011;46892;45.668;11.756;2022-11-15T07:55:02;13.93;;;10.67;;
55312;SDS011;46892;45.668;11.756;2022-11-15T07:57:29;12.20;;;10.43;;
55312;SDS011;46892;45.668;11.756;2022-11-15T07:59:55;12.63;;;10.60;;
55312;SDS011;46892;45.668;11.756;2022-11-15T08:02:20;13.43;;;10.97;;
55312;SDS011;46892;45.668;11.756;2022-11-15T08:04:46;11.93;;;10.47;;
55312;SDS011;46892;45.668;11.756;2022-11-15T08:07:12;13.53;;;10.67;;
55312;SDS011;46892;45.668;11.756;2022-11-15T08:09:37;13.73;;;11.43;;
55312;SDS011;46892;45.668;11.756;2022-11-15T08:12:03;14.53;;;12.13;;
55312;SDS011;46892;45.668;11.756;2022-11-15T08:14:29;15.13;;;12.70;;
55312;SDS011;46892;45.668;11.756;2022-11-15T08:16:55;15.23;;;12.70;;
55312;SDS011;46892;45.668;11.756;2022-11-15T08:19:20;14.40;;;12.70;;
55312;SDS011;46892;45.668;11.756;2022-11-15T08:21:46;14.00;;;11.17;;
55312;SDS011;46892;45.668;11.756;2022-11-15T08:24:12;13.67;;;11.03;;
55312;SDS011;46892;45.668;11.756;2022-11-15T08:26:37;20.20;;;12.13;;
55312;SDS011;46892;45.668;11.756;2022-11-15T08:29:04;25.73;;;13.50;;
55312;SDS011;46892;45.668;11.756;2022-11-15T08:31:30;16.67;;;13.00;;
55312;SDS011;46892;45.668;11.756;2022-11-15T08:33:56;23.37;;;14.93;;
55312;SDS011;46892;45.668;11.756;2022-11-15T08:36:21;19.60;;;14.87;;
55312;SDS011;46892;45.668;11.756;2022-11-15T08:38:47;21.03;;;15.60;;
55312;SDS011;46892;45.668;11.756;2022-11-15T08:41:14;18.73;;;14.80;;
55312;SDS011;46892;45.668;11.756;2022-11-15T08:43:49;19.90;;;16.50;;
55312;SDS011;46892;45.668;11.756;2022-11-15T08:46:14;18.53;;;15.30;;
55312;SDS011;46892;45.668;11.756;2022-11-15T08:48:40;25.30;;;16.70;;
55312;SDS011;46892;45.668;11.756;2022-11-15T08:51:06;18.93;;;15.30;;
55312;SDS011;46892;45.668;11.756;2022-11-15T08:53:31;22.33;;;16.93;;
55312;SDS011;46892;45.668;11.756;2022-11-15T08:55:58;19.90;;;16.10;;
55312;SDS011;46892;45.668;11.756;2022-11-15T08:58:23;21.40;;;16.90;;
55312;SDS011;46892;45.668;11.756;2022-11-15T09:00:49;21.40;;;17.50;;
55312;SDS011;46892;45.668;11.756;2022-11-15T09:03:15;28.27;;;18.63;;
55312;SDS011;46892;45.668;11.756;2022-11-15T09:05:40;24.70;;;17.90;;
55312;SDS011;46892;45.668;11.756;2022-11-15T09:08:06;20.67;;;16.53;;
55312;SDS011;46892;45.668;11.756;2022-11-15T09:10:32;21.37;;;17.47;;
55312;SDS011;46892;45.668;11.756;2022-11-15T09:12:57;19.47;;;15.40;;
55312;SDS011;46892;45.668;11.756;2022-11-15T09:15:23;22.77;;;16.50;;
55312;SDS011;46892;45.668;11.756;2022-11-15T09:17:49;22.87;;;18.43;;
55312;SDS011;46892;45.668;11.756;2022-11-15T09:20:14;22.40;;;17.93;;
55312;SDS011;46892;45.668;11.756;2022-11-15T09:22:40;21.10;;;17.10;;
55312;SDS011;46892;45.668;11.756;2022-11-15T09:25:06;26.37;;;18.90;;
55312;SDS011;46892;45.668;11.756;2022-11-15T09:27:33;24.50;;;18.20;;
55312;SDS011;46892;45.668;11.756;2022-11-15T09:29:58;23.53;;;17.57;;
55312;SDS011;46892;45.668;11.756;2022-11-15T09:32:27;22.33;;;17.60;;
55312;SDS011;46892;45.668;11.756;2022-11-15T09:34:55;25.40;;;18.73;;
55312;SDS011;46892;45.668;11.756;2022-11-15T09:37:21;23.97;;;19.30;;
55312;SDS011;46892;45.668;11.756;2022-11-15T09:39:46;24.27;;;18.33;;
55312;SDS011;46892;45.668;11.756;2022-11-15T09:45:21;30.00;;;23.07;;
55312;SDS011;46892;45.668;11.756;2022-11-15T09:49:00;29.60;;;22.10;;
55312;SDS011;46892;45.668;11.756;2022-11-15T09:51:14;28.77;;;23.00;;
55312;SDS011;46892;45.668;11.756;2022-11-15T09:56:46;29.87;;;21.87;;
55312;SDS011;46892;45.668;11.756;2022-11-15T10:02:17;26.53;;;20.70;;
55312;SDS011;46892;45.668;11.756;2022-11-15T10:05:04;29.63;;;22.00;;
55312;SDS011;46892;45.668;11.756;2022-11-15T10:12:42;29.20;;;22.50;;
55312;SDS011;46892;45.668;11.756;2022-11-15T10:20:16;31.60;;;24.07;;
55312;SDS011;46892;45.668;11.756;2022-11-15T10:22:46;29.40;;;22.23;;
55312;SDS011;46892;45.668;11.756;2022-11-15T10:30:38;29.88;;;23.02;;
55312;SDS011;46892;45.668;11.756;2022-11-15T10:33:10;27.33;;;21.73;;
55312;SDS011;46892;45.668;11.756;2022-11-15T10:46:37;24.53;;;19.37;;
55312;SDS011;46892;45.668;11.756;2022-11-15T10:52:24;22.40;;;18.57;;
55312;SDS011;46892;45.668;11.756;2022-11-15T10:54:55;23.30;;;18.30;;
55312;SDS011;46892;45.668;11.756;2022-11-15T10:59:56;22.90;;;18.27;;
55312;SDS011;46892;45.668;11.756;2022-11-15T11:02:29;25.13;;;19.27;;
55312;SDS011;46892;45.668;11.756;2022-11-15T11:05:04;24.87;;;20.30;;
55312;SDS011;46892;45.668;11.756;2022-11-15T11:07:55;24.10;;;18.70;;
55312;SDS011;46892;45.668;11.756;2022-11-15T11:10:23;22.93;;;18.33;;
55312;SDS011;46892;45.668;11.756;2022-11-15T11:12:50;24.10;;;18.37;;
55312;SDS011;46892;45.668;11.756;2022-11-15T11:15:16;25.63;;;19.90;;
55312;SDS011;46892;45.668;11.756;2022-11-15T11:18:05;24.70;;;18.13;;
55312;SDS011;46892;45.668;11.756;2022-11-15T11:20:41;23.07;;;18.30;;
55312;SDS011;46892;45.668;11.756;2022-11-15T11:26:25;24.93;;;18.20;;
55312;SDS011;46892;45.668;11.756;2022-11-15T11:40:37;28.67;;;20.20;;
55312;SDS011;46892;45.668;11.756;2022-11-15T11:51:49;26.10;;;19.87;;
55312;SDS011;46892;45.668;11.756;2022-11-15T11:57:23;22.17;;;18.20;;
55312;SDS011;46892;45.668;11.756;2022-11-15T12:00:00;21.10;;;16.50;;
55312;SDS011;46892;45.668;11.756;2022-11-15T12:02:37;19.40;;;15.43;;
55312;SDS011;46892;45.668;11.756;2022-11-15T12:05:15;19.70;;;15.07;;
55312;SDS011;46892;45.668;11.756;2022-11-15T12:07:45;18.90;;;15.13;;
55312;SDS011;46892;45.668;11.756;2022-11-15T12:13:08;21.00;;;15.87;;
55312;SDS011;46892;45.668;11.756;2022-11-15T12:15:52;20.50;;;14.87;;
55312;SDS011;46892;45.668;11.756;2022-11-15T12:18:24;16.83;;;14.00;;
55312;SDS011;46892;45.668;11.756;2022-11-15T12:20:52;17.73;;;13.57;;
55312;SDS011;46892;45.668;11.756;2022-11-15T12:23:26;18.07;;;14.57;;
55312;SDS011;46892;45.668;11.756;2022-11-15T12:25:56;17.87;;;13.80;;
55312;SDS011;46892;45.668;11.756;2022-11-15T12:31:52;17.57;;;14.87;;
55312;SDS011;46892;45.668;11.756;2022-11-15T12:34:04;15.10;;;12.33;;
55312;SDS011;46892;45.668;11.756;2022-11-15T12:36:46;16.47;;;13.03;;
55312;SDS011;46892;45.668;11.756;2022-11-15T12:39:13;18.67;;;13.77;;
55312;SDS011;46892;45.668;11.756;2022-11-15T12:41:44;16.00;;;12.87;;
55312;SDS011;46892;45.668;11.756;2022-11-15T12:46:59;16.90;;;13.23;;
55312;SDS011;46892;45.668;11.756;2022-11-15T13:02:41;19.07;;;13.03;;
55312;SDS011;46892;45.668;11.756;2022-11-15T13:17:48;15.13;;;11.90;;
55312;SDS011;46892;45.668;11.756;2022-11-15T13:33:33;19.07;;;15.10;;
55312;SDS011;46892;45.668;11.756;2022-11-15T13:38:43;20.27;;;16.80;;
55312;SDS011;46892;45.668;11.756;2022-11-15T13:41:19;18.37;;;15.80;;
55312;SDS011;46892;45.668;11.756;2022-11-15T13:43:47;18.63;;;15.03;;
55312;SDS011;46892;45.668;11.756;2022-11-15T13:48:43;17.47;;;14.73;;
55312;SDS011;46892;45.668;11.756;2022-11-15T13:51:33;22.17;;;16.73;;
55312;SDS011;46892;45.668;11.756;2022-11-15T13:56:34;18.53;;;15.77;;
55312;SDS011;46892;45.668;11.756;2022-11-15T13:59:08;20.23;;;15.57;;
55312;SDS011;46892;45.668;11.756;2022-11-15T14:01:53;20.70;;;16.73;;
55312;SDS011;46892;45.668;11.756;2022-11-15T14:04:22;20.43;;;16.37;;
55312;SDS011;46892;45.668;11.756;2022-11-15T14:06:52;20.53;;;16.30;;
55312;SDS011;46892;45.668;11.756;2022-11-15T14:12:01;22.17;;;18.10;;
55312;SDS011;46892;45.668;11.756;2022-11-15T14:14:28;22.73;;;18.00;;
55312;SDS011;46892;45.668;11.756;2022-11-15T14:16:56;22.70;;;17.70;;
55312;SDS011;46892;45.668;11.756;2022-11-15T14:27:31;18.27;;;15.00;;
55312;SDS011;46892;45.668;11.756;2022-11-15T14:29:58;20.57;;;15.87;;
55312;SDS011;46892;45.668;11.756;2022-11-15T14:32:25;18.20;;;15.53;;
55312;SDS011;46892;45.668;11.756;2022-11-15T14:34:59;21.10;;;16.87;;
55312;SDS011;46892;45.668;11.756;2022-11-15T14:37:31;20.53;;;15.83;;
55312;SDS011;46892;45.668;11.756;2022-11-15T14:40:00;20.17;;;15.77;;
55312;SDS011;46892;45.668;11.756;2022-11-15T14:42:27;22.03;;;16.70;;
55312;SDS011;46892;45.668;11.756;2022-11-15T14:44:53;18.83;;;15.30;;
55312;SDS011;46892;45.668;11.756;2022-11-15T14:47:19;18.27;;;15.20;;
55312;SDS011;46892;45.668;11.756;2022-11-15T14:49:44;19.97;;;16.40;;
55312;SDS011;46892;45.668;11.756;2022-11-15T14:52:23;19.83;;;15.73;;
55312;SDS011;46892;45.668;11.756;2022-11-15T14:54:49;20.20;;;15.57;;
55312;SDS011;46892;45.668;11.756;2022-11-15T14:57:15;19.90;;;15.83;;
55312;SDS011;46892;45.668;11.756;2022-11-15T14:59:40;27.10;;;19.13;;
55312;SDS011;46892;45.668;11.756;2022-11-15T15:02:13;21.70;;;15.73;;
55312;SDS011;46892;45.668;11.756;2022-11-15T15:04:47;19.87;;;15.63;;
55312;SDS011;46892;45.668;11.756;2022-11-15T15:07:13;20.90;;;16.03;;
55312;SDS011;46892;45.668;11.756;2022-11-15T15:09:39;21.97;;;18.07;;
55312;SDS011;46892;45.668;11.756;2022-11-15T15:12:10;24.77;;;17.77;;
55312;SDS011;46892;45.668;11.756;2022-11-15T15:14:41;22.30;;;17.03;;
55312;SDS011;46892;45.668;11.756;2022-11-15T15:17:07;23.47;;;18.00;;
55312;SDS011;46892;45.668;11.756;2022-11-15T15:19:33;22.97;;;17.73;;
55312;SDS011;46892;45.668;11.756;2022-11-15T15:21:58;22.93;;;17.63;;
55312;SDS011;46892;45.668;11.756;2022-11-15T15:24:24;19.77;;;16.73;;
55312;SDS011;46892;45.668;11.756;2022-11-15T15:26:49;22.07;;;16.53;;
55312;SDS011;46892;45.668;11.756;2022-11-15T15:29:15;22.20;;;17.70;;
55312;SDS011;46892;45.668;11.756;2022-11-15T15:31:41;28.47;;;20.57;;
55312;SDS011;46892;45.668;11.756;2022-11-15T15:34:06;27.97;;;19.47;;
55312;SDS011;46892;45.668;11.756;2022-11-15T15:36:32;24.93;;;19.47;;
55312;SDS011;46892;45.668;11.756;2022-11-15T15:38:57;27.63;;;19.60;;
55312;SDS011;46892;45.668;11.756;2022-11-15T15:41:23;23.53;;;18.90;;
55312;SDS011;46892;45.668;11.756;2022-11-15T15:43:49;24.80;;;18.57;;
55312;SDS011;46892;45.668;11.756;2022-11-15T15:46:16;23.87;;;18.27;;
55312;SDS011;46892;45.668;11.756;2022-11-15T15:48:43;28.90;;;21.77;;
55312;SDS011;46892;45.668;11.756;2022-11-15T15:51:10;29.10;;;20.57;;
55312;SDS011;46892;45.668;11.756;2022-11-15T15:53:36;25.43;;;19.13;;
55312;SDS011;46892;45.668;11.756;2022-11-15T15:56:02;22.77;;;18.07;;
55312;SDS011;46892;45.668;11.756;2022-11-15T15:58:28;22.63;;;17.63;;
55312;SDS011;46892;45.668;11.756;2022-11-15T16:00:53;21.57;;;17.00;;
55312;SDS011;46892;45.668;11.756;2022-11-15T16:03:19;22.87;;;17.87;;
55312;SDS011;46892;45.668;11.756;2022-11-15T16:05:45;23.10;;;17.63;;
55312;SDS011;46892;45.668;11.756;2022-11-15T16:08:18;20.73;;;17.30;;
55312;SDS011;46892;45.668;11.756;2022-11-15T16:10:48;21.30;;;16.80;;
55312;SDS011;46892;45.668;11.756;2022-11-15T16:13:14;20.83;;;17.23;;
55312;SDS011;46892;45.668;11.756;2022-11-15T16:15:40;24.63;;;18.37;;
55312;SDS011;46892;45.668;11.756;2022-11-15T16:18:08;22.77;;;17.23;;
55312;SDS011;46892;45.668;11.756;2022-11-15T16:20:43;21.70;;;16.17;;
55312;SDS011;46892;45.668;11.756;2022-11-15T16:23:12;23.43;;;18.40;;
55312;SDS011;46892;45.668;11.756;2022-11-15T16:31:05;21.37;;;16.53;;
55312;SDS011;46892;45.668;11.756;2022-11-15T16:33:35;23.27;;;18.13;;
55312;SDS011;46892;45.668;11.756;2022-11-15T16:36:02;24.43;;;19.40;;
55312;SDS011;46892;45.668;11.756;2022-11-15T16:38:29;25.20;;;19.47;;
55312;SDS011;46892;45.668;11.756;2022-11-15T16:40:55;28.43;;;22.50;;
55312;SDS011;46892;45.668;11.756;2022-11-15T16:43:20;26.90;;;19.70;;
55312;SDS011;46892;45.668;11.756;2022-11-15T16:45:46;26.23;;;20.13;;
55312;SDS011;46892;45.668;11.756;2022-11-15T16:48:21;24.80;;;19.83;;
55312;SDS011;46892;45.668;11.756;2022-11-15T16:50:49;26.50;;;19.20;;
55312;SDS011;46892;45.668;11.756;2022-11-15T16:53:15;27.27;;;21.27;;
55312;SDS011;46892;45.668;11.756;2022-11-15T16:55:41;25.13;;;20.03;;
55312;SDS011;46892;45.668;11.756;2022-11-15T16:58:07;25.80;;;20.63;;
55312;SDS011;46892;45.668;11.756;2022-11-15T17:00:33;25.93;;;19.53;;
55312;SDS011;46892;45.668;11.756;2022-11-15T17:02:59;24.67;;;19.70;;
55312;SDS011;46892;45.668;11.756;2022-11-15T17:05:24;24.83;;;19.00;;